FGN4JL UZFA-UZ1Q
Flight info
| Callsign | FGN4JL |
|---|---|
| Flight time | N/A |
| Altitude | 36000 |
| Route | RINDO1F RINDO DCT NULMO DCT TISIB L143 KUFIM DCT ILGOZ DCT JZK |
| Aircraft | A20N/M-SDE2E3FGHIRWXY/LB1 |
Departure
| Time | 2026-05-04 18:47 |
|---|---|
| Airport | Andijan International Airport (UZFA) |
Arrival
| Time | N/A |
|---|---|
| Airport | UZ1Q |
| Time | Latitude | Longitude | Altitude | Speed | Heading |
|---|---|---|---|---|---|
| 2026-05-04 18:35 | 40.73815 | 72.31111 | 1560 ft | 0 kts | 152° |
| 2026-05-04 18:43 | 40.73808 | 72.31116 | 1560 ft | 3 kts | 153° |
| 2026-05-04 18:44 | 40.73778 | 72.31109 | 1559 ft | 6 kts | 216° |
| 2026-05-04 18:44 | 40.73762 | 72.31073 | 1559 ft | 8 kts | 245° |
| 2026-05-04 18:44 | 40.73724 | 72.30966 | 1560 ft | 11 kts | 244° |
| 2026-05-04 18:44 | 40.73680 | 72.30858 | 1561 ft | 15 kts | 241° |
| 2026-05-04 18:45 | 40.73625 | 72.30728 | 1562 ft | 17 kts | 241° |
| 2026-05-04 18:45 | 40.73591 | 72.30585 | 1566 ft | 16 kts | 286° |
| 2026-05-04 18:45 | 40.73651 | 72.30561 | 1566 ft | 9 kts | 43° |
| 2026-05-04 18:45 | 40.73736 | 72.30673 | 1568 ft | 21 kts | 45° |
| 2026-05-04 18:46 | 40.73845 | 72.30819 | 1566 ft | 24 kts | 46° |
| 2026-05-04 18:46 | 40.73939 | 72.30947 | 1566 ft | 20 kts | 46° |
| 2026-05-04 18:46 | 40.73984 | 72.31024 | 1566 ft | 2 kts | 357° |
| 2026-05-04 18:46 | 40.73976 | 72.30980 | 1566 ft | 10 kts | 236° |
| 2026-05-04 18:47 | 40.73928 | 72.30929 | 1566 ft | 12 kts | 227° |
| 2026-05-04 18:47 | 40.73739 | 72.30673 | 1568 ft | 80 kts | 226° |
| 2026-05-04 18:47 | 40.73167 | 72.29901 | 1567 ft | 151 kts | 225° |
| 2026-05-04 18:47 | 40.72426 | 72.28898 | 2273 ft | 151 kts | 226° |
| 2026-05-04 18:48 | 40.71699 | 72.27878 | 3080 ft | 154 kts | 228° |
| 2026-05-04 18:48 | 40.70949 | 72.26802 | 3660 ft | 166 kts | 228° |
| 2026-05-04 18:48 | 40.70131 | 72.25634 | 4183 ft | 180 kts | 227° |
| 2026-05-04 18:48 | 40.69214 | 72.24367 | 4644 ft | 200 kts | 226° |
| 2026-05-04 18:49 | 40.68192 | 72.23008 | 5150 ft | 220 kts | 225° |
| 2026-05-04 18:49 | 40.67052 | 72.21531 | 5665 ft | 240 kts | 225° |
| 2026-05-04 18:49 | 40.65811 | 72.19913 | 6195 ft | 262 kts | 225° |
| 2026-05-04 18:49 | 40.64484 | 72.18169 | 6852 ft | 274 kts | 225° |
| 2026-05-04 18:50 | 40.63133 | 72.16381 | 7776 ft | 276 kts | 225° |
| 2026-05-04 18:50 | 40.61773 | 72.14571 | 8700 ft | 280 kts | 226° |
| 2026-05-04 18:50 | 40.60679 | 72.12457 | 9618 ft | 283 kts | 249° |
| 2026-05-04 18:50 | 40.60363 | 72.09889 | 10377 ft | 293 kts | 273° |
| 2026-05-04 18:51 | 40.60730 | 72.07187 | 10699 ft | 316 kts | 283° |
| 2026-05-04 18:51 | 40.61300 | 72.04282 | 11027 ft | 337 kts | 284° |
| 2026-05-04 18:51 | 40.61915 | 72.01276 | 11769 ft | 342 kts | 284° |
| 2026-05-04 18:51 | 40.62523 | 71.98237 | 12579 ft | 346 kts | 284° |
| 2026-05-04 18:52 | 40.63121 | 71.95149 | 13373 ft | 350 kts | 284° |
| 2026-05-04 18:52 | 40.63713 | 71.92017 | 14138 ft | 354 kts | 283° |
| 2026-05-04 18:52 | 40.64306 | 71.88847 | 14829 ft | 359 kts | 283° |
| 2026-05-04 18:52 | 40.64831 | 71.85610 | 15516 ft | 363 kts | 278° |
| 2026-05-04 18:53 | 40.65072 | 71.82291 | 16215 ft | 367 kts | 274° |
| 2026-05-04 18:53 | 40.65276 | 71.78922 | 16899 ft | 371 kts | 274° |
| 2026-05-04 18:53 | 40.65490 | 71.75525 | 17598 ft | 374 kts | 275° |
| 2026-05-04 18:53 | 40.65709 | 71.72084 | 18253 ft | 379 kts | 275° |
| 2026-05-04 18:54 | 40.65932 | 71.68605 | 18840 ft | 383 kts | 275° |
| 2026-05-04 18:54 | 40.66156 | 71.65087 | 19365 ft | 388 kts | 275° |
| 2026-05-04 18:54 | 40.66381 | 71.61525 | 19935 ft | 392 kts | 275° |
| 2026-05-04 18:54 | 40.66606 | 71.57926 | 20524 ft | 394 kts | 274° |
| 2026-05-04 18:55 | 40.66826 | 71.54404 | 21412 ft | 389 kts | 274° |
| 2026-05-04 18:55 | 40.67269 | 71.47229 | 22518 ft | 397 kts | 274° |
| 2026-05-04 18:55 | 40.67492 | 71.43583 | 23071 ft | 401 kts | 274° |
| 2026-05-04 18:56 | 40.67716 | 71.39903 | 23612 ft | 405 kts | 274° |
| 2026-05-04 18:56 | 40.67942 | 71.36184 | 24086 ft | 408 kts | 274° |
| 2026-05-04 18:56 | 40.68167 | 71.32446 | 24576 ft | 410 kts | 274° |
| 2026-05-04 18:56 | 40.68393 | 71.28679 | 24904 ft | 416 kts | 274° |
| 2026-05-04 18:57 | 40.68622 | 71.24824 | 24997 ft | 427 kts | 274° |
| 2026-05-04 18:57 | 40.68854 | 71.20909 | 25011 ft | 428 kts | 274° |
| 2026-05-04 18:57 | 40.69085 | 71.17003 | 25010 ft | 427 kts | 274° |
| 2026-05-04 18:57 | 40.69313 | 71.13103 | 25011 ft | 427 kts | 274° |
| 2026-05-04 18:58 | 40.69542 | 71.09181 | 25016 ft | 434 kts | 274° |
| 2026-05-04 18:58 | 40.69775 | 71.05149 | 25018 ft | 448 kts | 274° |
| 2026-05-04 18:58 | 40.70047 | 71.00992 | 25014 ft | 462 kts | 274° |
| 2026-05-04 18:58 | 40.70278 | 70.96766 | 25017 ft | 474 kts | 273° |
| 2026-05-04 18:59 | 40.70471 | 70.92373 | 25017 ft | 486 kts | 272° |
| 2026-05-04 18:59 | 40.70680 | 70.87886 | 25015 ft | 494 kts | 273° |
| 2026-05-04 18:59 | 40.70909 | 70.83371 | 25013 ft | 495 kts | 274° |
| 2026-05-04 18:59 | 40.71155 | 70.78817 | 25016 ft | 499 kts | 274° |
| 2026-05-04 19:00 | 40.71406 | 70.74260 | 25023 ft | 499 kts | 274° |
| 2026-05-04 19:00 | 40.71659 | 70.69700 | 25029 ft | 500 kts | 274° |
| 2026-05-04 19:00 | 40.71912 | 70.65125 | 25038 ft | 500 kts | 274° |
| 2026-05-04 19:00 | 40.72162 | 70.60553 | 25030 ft | 500 kts | 274° |
| 2026-05-04 19:01 | 40.72411 | 70.55976 | 25036 ft | 500 kts | 274° |
| 2026-05-04 19:01 | 40.72656 | 70.51408 | 25036 ft | 499 kts | 274° |
| 2026-05-04 19:01 | 40.72900 | 70.46827 | 25041 ft | 500 kts | 274° |
| 2026-05-04 19:01 | 40.73143 | 70.42243 | 25037 ft | 502 kts | 274° |
| 2026-05-04 19:02 | 40.73383 | 70.37665 | 25038 ft | 500 kts | 274° |
| 2026-05-04 19:02 | 40.73621 | 70.33094 | 25041 ft | 499 kts | 274° |
| 2026-05-04 19:02 | 40.73858 | 70.28519 | 25055 ft | 501 kts | 274° |
| 2026-05-04 19:02 | 40.74091 | 70.23989 | 25056 ft | 501 kts | 274° |
| 2026-05-04 19:03 | 40.74324 | 70.19412 | 25055 ft | 500 kts | 274° |
| 2026-05-04 19:03 | 40.74553 | 70.14853 | 25053 ft | 497 kts | 274° |
| 2026-05-04 19:03 | 40.74781 | 70.10303 | 25054 ft | 498 kts | 274° |
| 2026-05-04 19:03 | 40.75009 | 70.05734 | 25054 ft | 498 kts | 274° |
| 2026-05-04 19:04 | 40.75234 | 70.01170 | 25051 ft | 498 kts | 274° |
| 2026-05-04 19:04 | 40.75458 | 69.96611 | 25049 ft | 498 kts | 274° |
| 2026-05-04 19:04 | 40.75680 | 69.92048 | 25056 ft | 498 kts | 274° |
| 2026-05-04 19:04 | 40.75900 | 69.87481 | 25055 ft | 498 kts | 274° |
| 2026-05-04 19:05 | 40.76118 | 69.82918 | 25053 ft | 496 kts | 274° |
| 2026-05-04 19:05 | 40.76332 | 69.78387 | 25042 ft | 495 kts | 274° |
| 2026-05-04 19:05 | 40.76545 | 69.73843 | 25041 ft | 496 kts | 274° |
| 2026-05-04 19:05 | 40.76754 | 69.69361 | 25041 ft | 496 kts | 274° |
| 2026-05-04 19:06 | 40.76965 | 69.64810 | 25032 ft | 496 kts | 274° |
| 2026-05-04 19:06 | 40.77173 | 69.60273 | 25016 ft | 496 kts | 274° |
| 2026-05-04 19:06 | 40.77379 | 69.55736 | 24931 ft | 492 kts | 274° |
| 2026-05-04 19:06 | 40.77579 | 69.51288 | 24800 ft | 479 kts | 274° |
| 2026-05-04 19:07 | 40.77770 | 69.46973 | 24669 ft | 463 kts | 274° |
| 2026-05-04 19:07 | 40.77954 | 69.42806 | 24504 ft | 447 kts | 274° |
| 2026-05-04 19:07 | 40.78132 | 69.38753 | 24094 ft | 437 kts | 274° |
| 2026-05-04 19:07 | 40.78306 | 69.34796 | 23670 ft | 429 kts | 274° |
| 2026-05-04 19:08 | 40.78476 | 69.30885 | 23032 ft | 424 kts | 274° |
| 2026-05-04 19:08 | 40.78642 | 69.27026 | 22497 ft | 417 kts | 274° |
| 2026-05-04 19:08 | 40.78803 | 69.23234 | 21944 ft | 412 kts | 274° |
| 2026-05-04 19:08 | 40.78959 | 69.19536 | 21402 ft | 406 kts | 274° |
| 2026-05-04 19:09 | 40.79113 | 69.15837 | 20861 ft | 401 kts | 274° |
| 2026-05-04 19:09 | 40.79266 | 69.12176 | 20328 ft | 397 kts | 274° |
| 2026-05-04 19:09 | 40.79416 | 69.08555 | 19792 ft | 393 kts | 274° |
| 2026-05-04 19:09 | 40.79563 | 69.04974 | 19271 ft | 389 kts | 274° |
| 2026-05-04 19:10 | 40.79708 | 69.01416 | 18737 ft | 386 kts | 274° |
| 2026-05-04 19:10 | 40.79851 | 68.97885 | 18172 ft | 384 kts | 273° |
| 2026-05-04 19:10 | 40.79991 | 68.94387 | 17646 ft | 379 kts | 273° |
| 2026-05-04 19:10 | 40.80130 | 68.90925 | 17130 ft | 375 kts | 273° |
| 2026-05-04 19:11 | 40.80265 | 68.87507 | 16618 ft | 371 kts | 273° |
| 2026-05-04 19:11 | 40.80396 | 68.84175 | 16121 ft | 367 kts | 273° |
| 2026-05-04 19:11 | 40.80527 | 68.80825 | 15618 ft | 363 kts | 272° |
| 2026-05-04 19:11 | 40.80655 | 68.77503 | 15118 ft | 360 kts | 272° |
| 2026-05-04 19:12 | 40.80782 | 68.74215 | 14623 ft | 357 kts | 272° |
| 2026-05-04 19:12 | 40.80222 | 68.67883 | 13957 ft | 344 kts | 244° |
| 2026-05-04 19:12 | 40.78882 | 68.65288 | 13627 ft | 343 kts | 227° |
| 2026-05-04 19:13 | 40.77230 | 68.63000 | 13054 ft | 345 kts | 226° |
| 2026-05-04 19:13 | 40.75565 | 68.60740 | 12655 ft | 343 kts | 226° |
| 2026-05-04 19:13 | 40.73901 | 68.58488 | 12237 ft | 341 kts | 226° |
| 2026-05-04 19:13 | 40.72259 | 68.56261 | 11829 ft | 336 kts | 226° |
| 2026-05-04 19:14 | 40.70632 | 68.54049 | 11425 ft | 335 kts | 226° |
| 2026-05-04 19:14 | 40.69037 | 68.51878 | 11025 ft | 331 kts | 226° |
| 2026-05-04 19:14 | 40.67441 | 68.49705 | 10639 ft | 328 kts | 226° |
| 2026-05-04 19:14 | 40.65859 | 68.47554 | 10243 ft | 325 kts | 226° |
| 2026-05-04 19:15 | 40.64294 | 68.45425 | 9868 ft | 322 kts | 226° |
| 2026-05-04 19:15 | 40.62767 | 68.43350 | 9723 ft | 308 kts | 226° |
| 2026-05-04 19:15 | 40.61318 | 68.41384 | 9539 ft | 289 kts | 226° |
| 2026-05-04 19:15 | 40.59946 | 68.39522 | 9107 ft | 279 kts | 226° |
| 2026-05-04 19:16 | 40.58598 | 68.37693 | 8493 ft | 278 kts | 226° |
| 2026-05-04 19:16 | 40.57269 | 68.35891 | 8088 ft | 270 kts | 226° |
| 2026-05-04 19:16 | 40.55943 | 68.34096 | 7766 ft | 275 kts | 226° |
| 2026-05-04 19:16 | 40.54615 | 68.32297 | 7430 ft | 272 kts | 226° |
| 2026-05-04 19:17 | 40.53303 | 68.30523 | 7103 ft | 269 kts | 226° |
| 2026-05-04 19:17 | 40.51994 | 68.28753 | 6777 ft | 271 kts | 226° |
| 2026-05-04 19:17 | 40.50679 | 68.26976 | 6451 ft | 270 kts | 226° |
| 2026-05-04 19:17 | 40.49377 | 68.25217 | 6117 ft | 268 kts | 225° |
| 2026-05-04 19:18 | 40.48078 | 68.23464 | 5914 ft | 266 kts | 225° |
| 2026-05-04 19:18 | 40.46815 | 68.21761 | 5800 ft | 253 kts | 225° |
| 2026-05-04 19:18 | 40.45623 | 68.20155 | 5684 ft | 239 kts | 225° |
| 2026-05-04 19:18 | 40.44492 | 68.18621 | 5554 ft | 230 kts | 227° |
| 2026-05-04 19:19 | 40.43541 | 68.16969 | 5363 ft | 226 kts | 235° |
| 2026-05-04 19:19 | 40.42659 | 68.15230 | 5171 ft | 231 kts | 235° |
| 2026-05-04 19:19 | 40.41785 | 68.13500 | 4968 ft | 230 kts | 235° |
| 2026-05-04 19:19 | 40.40899 | 68.11745 | 4789 ft | 231 kts | 235° |
| 2026-05-04 19:20 | 40.39951 | 68.10060 | 4579 ft | 227 kts | 227° |
| 2026-05-04 19:20 | 40.38866 | 68.08595 | 4373 ft | 220 kts | 223° |
| 2026-05-04 19:20 | 40.37773 | 68.07224 | 4168 ft | 214 kts | 222° |
| 2026-05-04 19:20 | 40.36712 | 68.05890 | 3964 ft | 208 kts | 223° |
| 2026-05-04 19:21 | 40.35687 | 68.04577 | 3762 ft | 204 kts | 223° |
| 2026-05-04 19:21 | 40.34718 | 68.03311 | 3637 ft | 185 kts | 223° |
| 2026-05-04 19:21 | 40.33846 | 68.02159 | 3340 ft | 172 kts | 223° |
| 2026-05-04 19:21 | 40.33049 | 68.01103 | 3035 ft | 159 kts | 222° |
| 2026-05-04 19:22 | 40.32299 | 68.00110 | 2770 ft | 148 kts | 222° |
| 2026-05-04 19:22 | 40.31593 | 67.99177 | 2511 ft | 141 kts | 222° |
| 2026-05-04 19:22 | 40.30895 | 67.98259 | 2268 ft | 143 kts | 222° |
| 2026-05-04 19:22 | 40.30200 | 67.97344 | 2041 ft | 140 kts | 223° |
| 2026-05-04 19:23 | 40.29509 | 67.96441 | 1897 ft | 141 kts | 221° |
| 2026-05-04 19:23 | 40.28785 | 67.95583 | 1700 ft | 140 kts | 221° |
| 2026-05-04 19:23 | 40.28094 | 67.94693 | 1540 ft | 139 kts | 224° |
| 2026-05-04 19:23 | 40.27403 | 67.93810 | 1359 ft | 138 kts | 221° |
| 2026-05-04 19:24 | 40.26729 | 67.92942 | 1220 ft | 137 kts | 223° |
| 2026-05-04 19:24 | 40.26045 | 67.92079 | 1081 ft | 134 kts | 224° |
| 2026-05-04 19:24 | 40.25441 | 67.91317 | 1064 ft | 93 kts | 224° |
| 2026-05-04 19:24 | 40.25202 | 67.91021 | 1061 ft | 0 kts | 187° |
| 2026-05-04 19:25 | 40.25198 | 67.91031 | 1061 ft | 1 kts | 120° |
| 2026-05-04 19:25 | 40.25192 | 67.91085 | 1061 ft | 14 kts | 100° |
| 2026-05-04 19:25 | 40.25184 | 67.91196 | 1060 ft | 11 kts | 91° |
| 2026-05-04 19:25 | 40.25199 | 67.91302 | 1059 ft | 13 kts | 54° |
| 2026-05-04 19:26 | 40.25268 | 67.91394 | 1060 ft | 16 kts | 44° |
| 2026-05-04 19:26 | 40.25352 | 67.91502 | 1059 ft | 17 kts | 44° |
| 2026-05-04 19:26 | 40.25369 | 67.91526 | 1059 ft | 2 kts | 59° |
| 2026-05-04 19:26 | 40.25362 | 67.91586 | 1060 ft | 10 kts | 131° |
| 2026-05-04 19:27 | 40.25353 | 67.91598 | 1059 ft | 0 kts | 135° |